Aeroporto :
LOGIN :

Iscrizione | Disclaimer

   EN    FR    IT 

 










Sommario :    VFR   VFR Marginale   IFR   IFR Intensivo   IFR Molto Intensivo
Visibilità : 
Base nubi : 
>= 8 km
>= 3000ft
5 / 8 km
1000 / 3000 ft
1500m / 5 km
500 / 1000 ft
800 / 1500m
200 / 500 ft
< 800m
< 200 ft
Simboli :   Temporali  Nebbia  Neve Forte  Precipitazioni Forti  Vento > 20 kt
SIGMETs :   Varie  Temporali  Ghiacco  Turbolenza  Onda orograficha  Ceneri Vulcaniche






- Altitudine del aeroporto : 640 ft
- Codice IATA : AOC


EDAC - Altenburg-Nobitz

ULTIMO METAR :
  • 240120Z AUTO 19006KT 9999 // NCD 01/M01 Q1029

METARs OBSOLETI :
  • 240050Z AUTO 18006KT 9999 // NCD 01/M01 Q1029
  • 240020Z AUTO 19005KT 9999 // NCD 01/M01 Q1029
  • 232350Z AUTO 18004KT 9999 // NCD 01/M01 Q1029
  • 232320Z AUTO 14003KT 9999 // NCD M01/M02 Q1030
  • 232250Z AUTO 15003KT 9999 // NCD M01/M03 Q1030

TAF TAF EDAC
Valido dal 23 a 18 ore il 24 a 03 ore UTC


231705Z 2318/2403 25006KT CAVOK
BECMG 2318/2320 18004KT



MetMap, La meteo Aeronautica in un colpo d'occhio ! - Copyright ORBIFLY Dicembre 2007 - Disclaimer

ORBIFLY MET'MAP TEAM :

Programmazione e sviluppo : Alexandra Zaïnal
Concezione : Baudouin d'Aumeries
Aiuto per la programmazione : Marc-Olivier Méhu
Supporto tecnico e logistico : Manuel Goepfert
Aiuto per la traduzione : Arnaldo La Scala

Contatto : metmap@orbifly.com




FONTI E CREDITI :

   NOAA